Time;durP1;ratioP1;P1;durP2;ratioP2;P2;SDS_P1;SDS_P2;PMS_P1;PMS_P2;Temp;Humidity;BMP_temperature;BMP_pressure;BME280_temperature;BME280_humidity;BME280_pressure;Samples;Min_cycle;Max_cycle;Signal;HPM_P1;HPM_P2
2022/05/02 11:46:00;;;;;;;8.32;5.63;;;;;;;;;;6322466;27;20430;-78
2022/05/02 11:49:06;;;;;;;10.10;4.97;;;;;;;;;;6335353;27;20051;-79
2022/05/02 11:52:11;;;;;;;12.02;5.75;;;;;;;;;;6319831;28;20028;-79
2022/05/02 11:55:11;;;;;;;10.38;5.38;;;;;;;;;;6327097;28;20396;-79
2022/05/02 11:58:24;;;;;;;11.57;5.88;;;;;;;;;;6325221;28;20491;-80
2022/05/02 12:01:25;;;;;;;8.57;5.45;;;;;;;;;;6350833;28;20028;-80
2022/05/02 12:04:28;;;;;;;8.83;5.57;;;;;;;;;;6318884;28;20548;-80
2022/05/02 12:07:32;;;;;;;7.85;5.45;;;;;;;;;;6321717;28;20020;-79
2022/05/02 12:10:37;;;;;;;10.38;5.05;;;;;;;;;;6321033;28;20012;-80
2022/05/02 12:13:40;;;;;;;14.63;6.07;;;;;;;;;;6319072;28;20020;-79
2022/05/02 12:16:59;;;;;;;8.27;5.32;;;;;;;;;;6314594;28;20031;-79
2022/05/02 12:20:00;;;;;;;9.50;5.70;;;;;;;;;;6319578;28;20153;-79
2022/05/02 12:23:02;;;;;;;10.30;4.87;;;;;;;;;;6324684;28;20368;-79
2022/05/02 12:26:04;;;;;;;12.18;6.53;;;;;;;;;;6321278;28;20016;-79
2022/05/02 12:29:04;;;;;;;;;;;;;;;;;;6324930;28;20027;-79
2022/05/02 12:32:07;;;;;;;19.27;9.10;;;;;;;;;;6324416;28;20295;-80
2022/05/02 12:35:07;;;;;;;12.98;7.50;;;;;;;;;;6321907;28;20020;-80
2022/05/02 12:38:14;;;;;;;21.60;9.93;;;;;;;;;;6322919;28;20648;-79
2022/05/02 12:41:23;;;;;;;15.63;9.13;;;;;;;;;;6327074;28;20020;-80
2022/05/02 12:44:30;;;;;;;9.07;5.03;;;;;;;;;;6325550;28;20094;-80
2022/05/02 12:47:52;;;;;;;15.10;6.35;;;;;;;;;;6313546;28;20036;-80
2022/05/02 12:50:57;;;;;;;14.23;7.18;;;;;;;;;;6323053;28;20438;-80
2022/05/02 12:54:12;;;;;;;12.63;6.57;;;;;;;;;;6326783;28;20108;-79
2022/05/02 13:00:32;;;;;;;15.52;8.10;;;;;;;;;;6299590;28;20021;-79
2022/05/02 13:03:32;;;;;;;;;;;;;;;;;;6301948;28;20094;-79
2022/05/02 13:06:39;;;;;;;13.10;7.60;;;;;;;;;;6299973;28;19934;-80
2022/05/02 13:09:45;;;;;;;12.88;6.97;;;;;;;;;;6304577;28;20444;-80
2022/05/02 13:13:04;;;;;;;13.02;6.40;;;;;;;;;;6299971;28;20685;-79
2022/05/02 13:16:15;;;;;;;13.63;7.22;;;;;;;;;;6305215;28;20089;-79
2022/05/02 13:19:19;;;;;;;15.45;7.43;;;;;;;;;;6313568;28;20123;-79
2022/05/02 13:22:20;;;;;;;13.43;6.20;;;;;;;;;;6299548;28;20100;-79
2022/05/02 13:25:22;;;;;;;11.35;6.55;;;;;;;;;;6310631;28;20111;-79
2022/05/02 13:28:26;;;;;;;11.30;5.60;;;;;;;;;;6299404;28;20024;-79
2022/05/02 13:31:32;;;;;;;7.20;4.88;;;;;;;;;;6312592;28;20502;-79
2022/05/02 13:34:39;;;;;;;7.75;4.43;;;;;;;;;;6298585;28;20031;-79
2022/05/02 13:37:40;;;;;;;9.23;4.75;;;;;;;;;;6310416;28;20039;-79
2022/05/02 13:40:55;;;;;;;6.45;4.22;;;;;;;;;;6310762;28;20030;-79
2022/05/02 13:44:06;;;;;;;13.48;5.53;;;;;;;;;;6310121;28;20522;-79
2022/05/02 13:47:10;;;;;;;11.50;6.10;;;;;;;;;;6306234;28;20023;-79
2022/05/02 13:50:12;;;;;;;10.15;5.85;;;;;;;;;;6320903;28;20016;-80
2022/05/02 13:53:28;;;;;;;9.80;6.00;;;;;;;;;;6303987;28;20028;-79
2022/05/02 13:56:47;;;;;;;10.15;6.28;;;;;;;;;;6315405;28;20024;-79
2022/05/02 13:59:53;;;;;;;12.55;6.03;;;;;;;;;;6314785;28;20016;-79
2022/05/02 14:03:08;;;;;;;9.25;5.25;;;;;;;;;;6316581;28;20122;-79
2022/05/02 14:06:12;;;;;;;13.95;6.78;;;;;;;;;;6298570;28;20032;-79
2022/05/02 14:09:29;;;;;;;16.83;6.18;;;;;;;;;;6316721;28;20024;-79
2022/05/02 14:12:30;;;;;;;12.27;5.72;;;;;;;;;;6319745;28;20024;-79
2022/05/02 14:15:33;;;;;;;14.57;5.88;;;;;;;;;;6316350;28;20036;-79
2022/05/02 14:19:08;;;;;;;10.68;5.97;;;;;;;;;;6295376;28;20063;-80
2022/05/02 14:22:08;;;;;;;13.73;6.30;;;;;;;;;;6315030;28;20199;-80
2022/05/02 14:25:14;;;;;;;9.73;4.50;;;;;;;;;;6314210;28;20028;-80
2022/05/02 14:28:15;;;;;;;9.15;5.07;;;;;;;;;;6315684;28;20056;-80
2022/05/02 14:31:16;;;;;;;11.20;5.65;;;;;;;;;;6316166;28;20024;-80
2022/05/02 14:34:17;;;;;;;9.75;4.72;;;;;;;;;;6294622;28;20434;-80
2022/05/02 14:37:17;;;;;;;7.20;3.90;;;;;;;;;;6295124;28;20024;-79
2022/05/02 14:40:18;;;;;;;10.33;4.70;;;;;;;;;;6293666;28;20380;-80
2022/05/02 14:43:18;;;;;;;9.43;5.17;;;;;;;;;;6294706;28;20052;-80
2022/05/02 14:46:20;;;;;;;9.20;5.33;;;;;;;;;;6300244;28;20020;-80
2022/05/02 14:49:21;;;;;;;13.77;5.05;;;;;;;;;;6297387;28;20028;-80
2022/05/02 14:52:22;;;;;;;7.57;4.97;;;;;;;;;;6295505;28;20028;-80
2022/05/02 14:55:24;;;;;;;10.18;4.63;;;;;;;;;;6297430;28;20029;-80
2022/05/02 14:58:26;;;;;;;9.98;4.75;;;;;;;;;;6308238;28;20174;-80
2022/05/02 15:01:26;;;;;;;;;;;;;;;;;;6298694;28;20025;-79
2022/05/02 15:04:28;;;;;;;13.73;5.65;;;;;;;;;;6293560;28;19951;-80
2022/05/02 15:07:33;;;;;;;9.70;4.50;;;;;;;;;;6300216;28;20559;-79
2022/05/02 15:10:40;;;;;;;6.53;3.95;;;;;;;;;;6304531;28;20093;-79
2022/05/02 15:13:46;;;;;;;7.60;4.75;;;;;;;;;;6296441;28;20058;-79
2022/05/02 15:16:54;;;;;;;7.05;4.03;;;;;;;;;;6308398;28;20020;-80
2022/05/02 15:19:54;;;;;;;7.13;4.22;;;;;;;;;;6316094;28;20027;-80
2022/05/02 15:22:58;;;;;;;6.50;3.97;;;;;;;;;;6312612;28;20040;-80
2022/05/02 15:25:59;;;;;;;7.13;4.22;;;;;;;;;;6308166;28;20034;-80
2022/05/02 15:39:02;;;;;;;7.28;4.97;;;;;;;;;;6302458;28;20024;-80
2022/05/02 15:42:04;;;;;;;11.43;5.83;;;;;;;;;;6292384;28;20074;-80
2022/05/02 15:45:19;;;;;;;7.75;4.63;;;;;;;;;;6295628;28;20067;-80
2022/05/02 15:48:42;;;;;;;9.35;3.97;;;;;;;;;;6312707;28;20101;-80
2022/05/02 15:51:46;;;;;;;4.55;3.30;;;;;;;;;;6302989;28;20368;-80
2022/05/02 15:54:59;;;;;;;8.10;5.20;;;;;;;;;;6306720;28;20027;-80
2022/05/02 15:57:59;;;;;;;21.58;14.27;;;;;;;;;;6294248;28;20102;-79
2022/05/02 16:01:08;;;;;;;12.43;8.17;;;;;;;;;;6304650;28;20024;-79
2022/05/02 16:04:12;;;;;;;10.57;6.30;;;;;;;;;;6307226;28;20032;-79
2022/05/02 16:10:31;;;;;;;19.60;12.55;;;;;;;;;;6296679;28;20032;-80
2022/05/02 16:13:38;;;;;;;32.17;19.30;;;;;;;;;;6297089;28;20563;-80
2022/05/02 16:16:45;;;;;;;27.15;16.77;;;;;;;;;;6307379;28;20024;-80
2022/05/02 16:19:45;;;;;;;22.10;13.13;;;;;;;;;;6316713;28;20020;-80
2022/05/02 16:22:46;;;;;;;20.77;12.43;;;;;;;;;;6294529;28;20074;-80
2022/05/02 16:25:53;;;;;;;14.48;8.35;;;;;;;;;;6303790;28;20383;-80
2022/05/02 16:28:55;;;;;;;13.25;8.25;;;;;;;;;;6295273;28;20077;-79
2022/05/02 16:31:59;;;;;;;16.05;9.82;;;;;;;;;;6298433;28;20029;-79
2022/05/02 16:35:06;;;;;;;19.67;11.90;;;;;;;;;;6297028;28;20028;-80
2022/05/02 16:38:06;;;;;;;18.00;11.68;;;;;;;;;;6298043;28;20032;-80
2022/05/02 16:41:14;;;;;;;18.03;11.83;;;;;;;;;;6297461;28;20025;-80
2022/05/02 16:44:14;;;;;;;13.90;8.77;;;;;;;;;;6295633;28;20048;-79
2022/05/02 16:47:17;;;;;;;10.63;6.30;;;;;;;;;;6306059;28;20035;-79
2022/05/02 16:50:34;;;;;;;11.70;6.90;;;;;;;;;;6307789;28;20027;-79
2022/05/02 16:53:40;;;;;;;10.15;5.88;;;;;;;;;;6306052;28;20019;-79
2022/05/02 16:56:41;;;;;;;13.50;6.05;;;;;;;;;;6313274;28;20023;-79
2022/05/02 16:59:42;;;;;;;14.00;7.93;;;;;;;;;;6310585;28;20078;-79
2022/05/02 17:02:45;;;;;;;13.87;7.73;;;;;;;;;;6307227;28;20032;-79
2022/05/02 17:05:46;;;;;;;10.23;5.70;;;;;;;;;;6310249;28;20075;-80
2022/05/02 17:08:46;;;;;;;12.00;5.03;;;;;;;;;;6312711;28;20377;-79
2022/05/02 17:11:46;;;;;;;9.93;4.70;;;;;;;;;;6310098;28;20470;-80
2022/05/02 17:14:47;;;;;;;10.90;5.60;;;;;;;;;;6320656;28;20338;-79
2022/05/02 17:17:49;;;;;;;9.10;5.40;;;;;;;;;;6305713;28;20033;-79
2022/05/02 17:20:53;;;;;;;11.45;5.15;;;;;;;;;;6303525;28;20032;-79
2022/05/02 17:23:55;;;;;;;9.77;6.13;;;;;;;;;;6311645;28;20032;-79
2022/05/02 17:26:56;;;;;;;;;;;;;;;;;;6315298;28;20471;-79
2022/05/02 17:30:04;;;;;;;8.32;5.22;;;;;;;;;;6321459;28;19911;-79
2022/05/02 17:33:08;;;;;;;10.15;5.28;;;;;;;;;;6301746;28;20027;-79
2022/05/02 17:36:08;;;;;;;9.77;5.53;;;;;;;;;;6314616;28;20020;-79
2022/05/02 17:39:17;;;;;;;8.10;5.30;;;;;;;;;;6311818;28;20079;-79
2022/05/02 17:42:22;;;;;;;8.82;5.50;;;;;;;;;;6296145;28;20023;-79
2022/05/02 17:45:26;;;;;;;13.00;6.63;;;;;;;;;;6312274;28;20157;-79
2022/05/02 17:48:28;;;;;;;10.80;6.55;;;;;;;;;;6313778;28;20081;-79
2022/05/02 17:51:29;;;;;;;15.05;6.57;;;;;;;;;;6309923;28;20016;-79
2022/05/02 17:54:30;;;;;;;19.83;11.07;;;;;;;;;;6320366;28;20374;-79
2022/05/02 17:57:30;;;;;;;20.95;11.40;;;;;;;;;;6318055;28;20383;-79
2022/05/02 18:00:30;;;;;;;22.47;12.93;;;;;;;;;;6320214;28;20031;-79
2022/05/02 18:03:34;;;;;;;26.97;13.87;;;;;;;;;;6317727;28;20066;-80
2022/05/02 18:06:34;;;;;;;27.60;16.50;;;;;;;;;;6319261;28;20492;-80
2022/05/02 18:09:34;;;;;;;25.70;15.17;;;;;;;;;;6318319;28;20027;-80
2022/05/02 18:12:35;;;;;;;25.47;13.93;;;;;;;;;;6314394;28;20015;-79
2022/05/02 18:15:37;;;;;;;25.27;14.30;;;;;;;;;;6294628;28;20020;-79
2022/05/02 18:18:44;;;;;;;20.77;11.63;;;;;;;;;;6305685;28;20103;-79
2022/05/02 18:21:45;;;;;;;20.15;10.15;;;;;;;;;;6308228;28;20056;-79
2022/05/02 18:24:46;;;;;;;17.37;11.03;;;;;;;;;;6298762;28;20073;-79
2022/05/02 18:27:47;;;;;;;21.03;11.97;;;;;;;;;;6295173;28;20019;-79
2022/05/02 18:30:49;;;;;;;31.10;16.47;;;;;;;;;;6302737;28;20020;-79
2022/05/02 18:33:53;;;;;;;22.88;12.77;;;;;;;;;;6300545;28;20455;-79
2022/05/02 18:36:55;;;;;;;18.70;10.88;;;;;;;;;;6295803;28;20020;-79
2022/05/02 18:39:56;;;;;;;19.52;10.18;;;;;;;;;;6300556;28;20024;-79
2022/05/02 18:43:02;;;;;;;19.05;11.63;;;;;;;;;;6302884;28;20020;-79
2022/05/02 18:52:57;;;;;;;20.65;12.63;;;;;;;;;;6314185;28;20028;-79
2022/05/02 18:55:58;;;;;;;25.55;13.07;;;;;;;;;;6306363;28;20099;-80
2022/05/02 18:58:59;;;;;;;25.15;13.15;;;;;;;;;;6311197;28;20043;-79
2022/05/02 19:02:03;;;;;;;33.40;13.80;;;;;;;;;;6313427;28;20115;-79
2022/05/02 19:05:04;;;;;;;19.92;11.73;;;;;;;;;;6311710;28;20051;-79
2022/05/02 19:08:16;;;;;;;21.95;11.43;;;;;;;;;;6300290;28;20023;-79
2022/05/02 19:11:18;;;;;;;22.80;12.93;;;;;;;;;;6306111;28;20031;-79
2022/05/02 19:14:20;;;;;;;26.63;11.77;;;;;;;;;;6303284;28;20110;-79
2022/05/02 19:17:26;;;;;;;26.42;12.20;;;;;;;;;;6302722;28;20024;-79
2022/05/02 19:20:41;;;;;;;26.33;12.25;;;;;;;;;;6301012;28;20081;-79
2022/05/02 19:23:56;;;;;;;20.13;11.57;;;;;;;;;;6303549;28;20032;-79
2022/05/02 19:26:59;;;;;;;24.50;12.10;;;;;;;;;;6298383;28;20019;-79
2022/05/02 19:30:02;;;;;;;28.80;13.13;;;;;;;;;;6301031;28;20016;-79
2022/05/02 19:33:10;;;;;;;25.55;12.32;;;;;;;;;;6293075;28;20021;-79
2022/05/02 19:39:32;;;;;;;33.55;13.65;;;;;;;;;;6316337;28;20028;-79
2022/05/02 19:42:34;;;;;;;25.40;14.50;;;;;;;;;;6315699;28;20035;-79
2022/05/02 19:45:36;;;;;;;30.10;14.20;;;;;;;;;;6315407;28;20302;-79
2022/05/02 19:48:40;;;;;;;24.73;14.68;;;;;;;;;;6314710;28;20020;-79
2022/05/02 19:51:41;;;;;;;50.50;15.88;;;;;;;;;;6296418;28;20017;-79
2022/05/02 19:54:42;;;;;;;35.73;12.87;;;;;;;;;;6297796;28;21031;-79
2022/05/02 19:57:43;;;;;;;24.25;11.25;;;;;;;;;;6302169;28;20095;-79
2022/05/02 20:00:44;;;;;;;25.20;12.90;;;;;;;;;;6299404;28;20020;-79
2022/05/02 20:03:44;;;;;;;29.98;15.00;;;;;;;;;;6317825;28;20401;-79
2022/05/02 20:06:44;;;;;;;27.97;16.67;;;;;;;;;;6315457;28;20391;-79
2022/05/02 20:09:46;;;;;;;37.37;19.33;;;;;;;;;;6315043;28;20250;-79
2022/05/02 20:12:46;;;;;;;44.65;22.33;;;;;;;;;;6314817;28;20706;-79
2022/05/02 20:15:47;;;;;;;38.55;18.73;;;;;;;;;;6297544;28;20028;-79
2022/05/02 20:18:47;;;;;;;28.47;17.17;;;;;;;;;;6296532;28;20012;-79
2022/05/02 20:21:49;;;;;;;38.13;17.85;;;;;;;;;;6296202;28;20021;-79
2022/05/02 20:24:49;;;;;;;33.35;17.90;;;;;;;;;;6322079;28;20019;-79
2022/05/02 20:27:50;;;;;;;39.95;19.90;;;;;;;;;;6326452;28;20039;-79
2022/05/02 20:30:51;;;;;;;19.80;10.47;;;;;;;;;;6307340;28;20040;-79
2022/05/02 20:37:10;;;;;;;45.03;17.85;;;;;;;;;;6296250;28;20411;-79
2022/05/02 20:40:10;;;;;;;34.10;17.88;;;;;;;;;;6297782;28;20120;-79
2022/05/02 20:43:16;;;;;;;29.45;16.92;;;;;;;;;;6301923;28;20564;-79
2022/05/02 20:46:17;;;;;;;40.47;14.90;;;;;;;;;;6307368;28;20016;-79
2022/05/02 20:49:17;;;;;;;34.23;17.27;;;;;;;;;;6321503;28;20024;-79
2022/05/02 20:52:24;;;;;;;40.80;19.38;;;;;;;;;;6320410;28;20590;-79
2022/05/02 20:55:25;;;;;;;43.92;19.20;;;;;;;;;;6320293;28;20065;-79
2022/05/02 20:58:27;;;;;;;45.47;22.05;;;;;;;;;;6319410;28;20020;-79
2022/05/02 21:01:28;;;;;;;43.45;20.38;;;;;;;;;;6314269;28;20137;-79
2022/05/02 21:04:28;;;;;;;47.33;22.23;;;;;;;;;;6310946;28;20098;-79
2022/05/02 21:07:28;;;;;;;39.65;22.20;;;;;;;;;;6316482;28;20368;-79
2022/05/02 21:10:30;;;;;;;43.97;23.03;;;;;;;;;;6310437;28;20004;-79
2022/05/02 21:13:30;;;;;;;46.28;22.83;;;;;;;;;;6309742;28;20333;-79
2022/05/02 21:16:38;;;;;;;44.20;21.27;;;;;;;;;;6314744;28;20031;-79
2022/05/02 21:19:40;;;;;;;50.50;25.95;;;;;;;;;;6313875;28;20020;-79
2022/05/02 21:22:46;;;;;;;61.88;32.92;;;;;;;;;;6310987;28;20076;-79
2022/05/02 21:26:07;;;;;;;54.28;30.08;;;;;;;;;;6307899;28;20020;-79
2022/05/02 21:29:22;;;;;;;71.07;34.38;;;;;;;;;;6313275;28;20020;-79
2022/05/02 21:32:29;;;;;;;72.28;35.33;;;;;;;;;;6313986;28;20024;-79
2022/05/02 21:35:32;;;;;;;78.22;35.10;;;;;;;;;;6300690;28;20058;-79
2022/05/02 21:38:32;;;;;;;66.57;35.20;;;;;;;;;;6299523;28;20021;-79
2022/05/02 21:41:33;;;;;;;61.50;32.70;;;;;;;;;;6298366;28;20021;-79
2022/05/02 21:44:34;;;;;;;71.45;35.95;;;;;;;;;;6298630;28;20045;-79
2022/05/02 21:47:34;;;;;;;65.97;33.23;;;;;;;;;;6303311;28;21112;-79
2022/05/02 21:50:35;;;;;;;64.57;32.93;;;;;;;;;;6297361;28;20259;-79
2022/05/02 21:53:35;;;;;;;55.28;30.38;;;;;;;;;;6294825;28;20305;-79
2022/05/02 21:56:35;;;;;;;56.78;27.50;;;;;;;;;;6317110;28;20024;-79
2022/05/02 21:59:36;;;;;;;56.13;27.60;;;;;;;;;;6302080;28;20020;-79
2022/05/02 22:02:36;;;;;;;46.38;23.15;;;;;;;;;;6296059;28;20025;-79
2022/05/02 22:05:37;;;;;;;46.55;22.58;;;;;;;;;;6296122;28;20024;-79
2022/05/02 22:08:37;;;;;;;47.50;25.55;;;;;;;;;;6294591;28;20033;-79
2022/05/02 22:11:38;;;;;;;43.47;24.47;;;;;;;;;;6297767;28;20024;-79
2022/05/02 22:14:38;;;;;;;48.90;26.10;;;;;;;;;;6300937;28;20258;-79
2022/05/02 22:17:38;;;;;;;50.40;30.17;;;;;;;;;;6300124;28;20258;-79
2022/05/02 22:20:38;;;;;;;50.28;27.45;;;;;;;;;;6317721;28;20258;-79
2022/05/02 22:23:39;;;;;;;43.58;25.15;;;;;;;;;;6312372;28;21239;-79
2022/05/02 22:26:39;;;;;;;41.70;24.07;;;;;;;;;;6318148;28;20123;-79
2022/05/02 22:29:39;;;;;;;35.97;16.38;;;;;;;;;;6311538;28;20628;-79
2022/05/02 22:32:39;;;;;;;41.43;23.33;;;;;;;;;;6310859;28;20050;-79
2022/05/02 22:35:40;;;;;;;53.53;28.15;;;;;;;;;;6309258;28;20265;-79
2022/05/02 22:38:40;;;;;;;56.40;27.52;;;;;;;;;;6308355;28;20380;-79
2022/05/02 22:41:40;;;;;;;40.58;23.52;;;;;;;;;;6310402;28;20029;-79
2022/05/02 22:44:40;;;;;;;56.87;25.93;;;;;;;;;;6299560;28;20060;-79
2022/05/02 22:47:42;;;;;;;45.85;25.85;;;;;;;;;;6303295;28;20294;-79
2022/05/02 22:50:42;;;;;;;45.38;23.48;;;;;;;;;;6303340;28;20032;-79
2022/05/02 22:53:43;;;;;;;43.27;24.13;;;;;;;;;;6319439;28;20615;-79
2022/05/02 22:56:48;;;;;;;48.70;25.80;;;;;;;;;;6304173;28;20704;-79
2022/05/02 22:59:50;;;;;;;54.13;28.48;;;;;;;;;;6300802;28;20288;-79
2022/05/02 23:02:59;;;;;;;49.00;25.35;;;;;;;;;;6317739;28;20024;-79
2022/05/02 23:06:03;;;;;;;50.22;23.80;;;;;;;;;;6317417;28;20542;-79
2022/05/02 23:09:03;;;;;;;44.15;22.58;;;;;;;;;;6317303;28;20046;-79
2022/05/02 23:12:05;;;;;;;46.92;25.65;;;;;;;;;;6318804;28;20020;-79
2022/05/02 23:15:06;;;;;;;41.90;23.45;;;;;;;;;;6318646;28;20051;-79
2022/05/02 23:18:07;;;;;;;40.65;22.83;;;;;;;;;;6318500;28;20105;-79
2022/05/02 23:21:08;;;;;;;42.30;23.88;;;;;;;;;;6318707;28;20028;-79
2022/05/02 23:24:09;;;;;;;42.63;23.70;;;;;;;;;;6319572;28;20032;-79
2022/05/02 23:27:09;;;;;;;44.03;22.42;;;;;;;;;;6316740;28;20076;-79
2022/05/02 23:30:11;;;;;;;35.42;20.38;;;;;;;;;;6297879;28;20097;-79
2022/05/02 23:33:15;;;;;;;38.53;20.15;;;;;;;;;;6291951;28;20035;-79
2022/05/02 23:36:18;;;;;;;33.47;18.23;;;;;;;;;;6292712;28;20052;-79
2022/05/02 23:39:27;;;;;;;45.17;21.67;;;;;;;;;;6291890;28;20030;-79
2022/05/02 23:42:29;;;;;;;36.67;20.33;;;;;;;;;;6293296;28;20029;-79
2022/05/02 23:45:39;;;;;;;37.20;18.55;;;;;;;;;;6291822;28;20127;-79
2022/05/02 23:48:48;;;;;;;34.53;18.90;;;;;;;;;;6291387;28;20024;-79
2022/05/02 23:52:03;;;;;;;38.72;21.67;;;;;;;;;;6309805;28;20024;-79
2022/05/02 23:55:21;;;;;;;42.08;19.85;;;;;;;;;;6327246;28;20467;-79
2022/05/02 23:58:33;;;;;;;43.30;22.90;;;;;;;;;;6305705;28;20035;-79
